EWG9MB EDDH-LSZH
Flight info
| Callsign | EWG9MB |
|---|---|
| Flight time | 1h 12m |
| Altitude | 35000 |
| Route | IDEKO7G/33 IDEKO N850 ROBEG DCT SWALM/N0423F340 DCT OMOGI/N0428F350 T721 LAMGO/N0361F230 T721 RILAX |
| Aircraft | A320/M-SDE3FGHIRWY/LB1 |
Departure
| Time | 2026-04-25 21:46 |
|---|---|
| Airport | Hamburg Helmut Schmidt Airport (EDDH) |
Arrival
| Time | 2026-04-25 22:58 |
|---|---|
| Airport | Zürich Airport (LSZH) |
| Time | Latitude | Longitude | Altitude | Speed | Heading |
|---|---|---|---|---|---|
| 2026-04-25 21:24 | 53.63206 | 10.00375 | 51 ft | 0 kts | 86° |
| 2026-04-25 21:31 | 53.63205 | 10.00339 | 23 ft | 4 kts | 86° |
| 2026-04-25 21:31 | 53.63203 | 10.00293 | 51 ft | 4 kts | 86° |
| 2026-04-25 21:31 | 53.63202 | 10.00257 | 51 ft | 4 kts | 87° |
| 2026-04-25 21:31 | 53.63204 | 10.00213 | 51 ft | 4 kts | 110° |
| 2026-04-25 21:32 | 53.63217 | 10.00181 | 47 ft | 4 kts | 165° |
| 2026-04-25 21:32 | 53.63223 | 10.00178 | 47 ft | 0 kts | 176° |
| 2026-04-25 21:38 | 53.63214 | 10.00180 | 47 ft | 2 kts | 175° |
| 2026-04-25 21:38 | 53.63203 | 10.00181 | 51 ft | 1 kts | 175° |
| 2026-04-25 21:38 | 53.63172 | 10.00186 | 49 ft | 7 kts | 175° |
| 2026-04-25 21:39 | 53.63122 | 10.00193 | 51 ft | 9 kts | 175° |
| 2026-04-25 21:39 | 53.63061 | 10.00172 | 49 ft | 8 kts | 208° |
| 2026-04-25 21:39 | 53.63015 | 10.00125 | 51 ft | 7 kts | 212° |
| 2026-04-25 21:39 | 53.62976 | 10.00085 | 48 ft | 6 kts | 212° |
| 2026-04-25 21:40 | 53.62945 | 10.00050 | 50 ft | 5 kts | 216° |
| 2026-04-25 21:40 | 53.62927 | 10.00011 | 50 ft | 4 kts | 239° |
| 2026-04-25 21:40 | 53.62919 | 9.99988 | 50 ft | 0 kts | 241° |
| 2026-04-25 21:41 | 53.62918 | 9.99986 | 50 ft | 2 kts | 241° |
| 2026-04-25 21:41 | 53.62907 | 9.99950 | 47 ft | 3 kts | 243° |
| 2026-04-25 21:42 | 53.62899 | 9.99923 | 50 ft | 2 kts | 243° |
| 2026-04-25 21:42 | 53.62897 | 9.99917 | 50 ft | 0 kts | 243° |
| 2026-04-25 21:43 | 53.62896 | 9.99913 | 50 ft | 3 kts | 243° |
| 2026-04-25 21:44 | 53.62868 | 9.99821 | 50 ft | 10 kts | 243° |
| 2026-04-25 21:44 | 53.62884 | 9.99728 | 49 ft | 10 kts | 332° |
| 2026-04-25 21:44 | 53.62892 | 9.99721 | 50 ft | 0 kts | 332° |
| 2026-04-25 21:45 | 53.62896 | 9.99717 | 50 ft | 4 kts | 332° |
| 2026-04-25 21:45 | 53.63130 | 9.99515 | 50 ft | 75 kts | 333° |
| 2026-04-25 21:46 | 53.63774 | 9.98959 | 48 ft | 133 kts | 333° |
| 2026-04-25 21:46 | 53.64695 | 9.98150 | 365 ft | 152 kts | 330° |
| 2026-04-25 21:46 | 53.65616 | 9.97384 | 1197 ft | 145 kts | 332° |
| 2026-04-25 21:46 | 53.66513 | 9.96645 | 1915 ft | 148 kts | 333° |
| 2026-04-25 21:47 | 53.67510 | 9.95802 | 2244 ft | 170 kts | 333° |
| 2026-04-25 21:47 | 53.68626 | 9.94828 | 2697 ft | 188 kts | 333° |
| 2026-04-25 21:47 | 53.69774 | 9.93798 | 3617 ft | 186 kts | 334° |
| 2026-04-25 21:47 | 53.70875 | 9.92591 | 4392 ft | 195 kts | 316° |
| 2026-04-25 21:48 | 53.71477 | 9.90471 | 5129 ft | 215 kts | 285° |
| 2026-04-25 21:48 | 53.71262 | 9.87768 | 5545 ft | 251 kts | 260° |
| 2026-04-25 21:48 | 53.70707 | 9.84875 | 6220 ft | 264 kts | 258° |
| 2026-04-25 21:48 | 53.70095 | 9.81935 | 7126 ft | 267 kts | 258° |
| 2026-04-25 21:49 | 53.69461 | 9.78976 | 8048 ft | 269 kts | 258° |
| 2026-04-25 21:49 | 53.68828 | 9.76008 | 9013 ft | 268 kts | 260° |
| 2026-04-25 21:49 | 53.68240 | 9.73032 | 9981 ft | 268 kts | 261° |
| 2026-04-25 21:49 | 53.67655 | 9.70000 | 10614 ft | 279 kts | 262° |
| 2026-04-25 21:50 | 53.67034 | 9.66747 | 10896 ft | 302 kts | 261° |
| 2026-04-25 21:50 | 53.66254 | 9.63346 | 11469 ft | 322 kts | 250° |
| 2026-04-25 21:50 | 53.64842 | 9.60261 | 12171 ft | 346 kts | 232° |
| 2026-04-25 21:50 | 53.63540 | 9.58613 | 12638 ft | 362 kts | 218° |
| 2026-04-25 21:51 | 53.60214 | 9.56869 | 13542 ft | 388 kts | 192° |
| 2026-04-25 21:51 | 53.57516 | 9.56350 | 14277 ft | 391 kts | 192° |
| 2026-04-25 21:51 | 53.54799 | 9.55838 | 14939 ft | 394 kts | 192° |
| 2026-04-25 21:51 | 53.52063 | 9.55319 | 15593 ft | 397 kts | 192° |
| 2026-04-25 21:52 | 53.49307 | 9.54788 | 16249 ft | 400 kts | 193° |
| 2026-04-25 21:52 | 53.46528 | 9.54245 | 16909 ft | 403 kts | 193° |
| 2026-04-25 21:52 | 53.43731 | 9.53694 | 17569 ft | 407 kts | 193° |
| 2026-04-25 21:52 | 53.40908 | 9.53140 | 18212 ft | 410 kts | 193° |
| 2026-04-25 21:53 | 53.38066 | 9.52581 | 18791 ft | 413 kts | 193° |
| 2026-04-25 21:53 | 53.35200 | 9.52016 | 19324 ft | 415 kts | 193° |
| 2026-04-25 21:53 | 53.32326 | 9.51451 | 19916 ft | 417 kts | 192° |
| 2026-04-25 21:53 | 53.29435 | 9.50886 | 20468 ft | 420 kts | 192° |
| 2026-04-25 21:54 | 53.26553 | 9.50324 | 20997 ft | 423 kts | 192° |
| 2026-04-25 21:54 | 53.23619 | 9.49749 | 21516 ft | 426 kts | 192° |
| 2026-04-25 21:54 | 53.20658 | 9.49166 | 22025 ft | 429 kts | 192° |
| 2026-04-25 21:54 | 53.17679 | 9.48584 | 22528 ft | 432 kts | 192° |
| 2026-04-25 21:55 | 53.14679 | 9.48002 | 23031 ft | 435 kts | 192° |
| 2026-04-25 21:55 | 53.11653 | 9.47415 | 23524 ft | 439 kts | 192° |
| 2026-04-25 21:55 | 53.08613 | 9.46825 | 23958 ft | 442 kts | 192° |
| 2026-04-25 21:55 | 53.05548 | 9.46241 | 24373 ft | 445 kts | 192° |
| 2026-04-25 21:56 | 53.02458 | 9.45762 | 24791 ft | 448 kts | 190° |
| 2026-04-25 21:56 | 53.00396 | 9.45505 | 25059 ft | 450 kts | 189° |
| 2026-04-25 21:56 | 52.96199 | 9.45071 | 25601 ft | 453 kts | 188° |
| 2026-04-25 21:56 | 52.93044 | 9.44772 | 25999 ft | 455 kts | 188° |
| 2026-04-25 21:57 | 52.89875 | 9.44465 | 26396 ft | 457 kts | 188° |
| 2026-04-25 21:57 | 52.86689 | 9.44132 | 26772 ft | 459 kts | 188° |
| 2026-04-25 21:57 | 52.83545 | 9.43782 | 27213 ft | 459 kts | 188° |
| 2026-04-25 21:57 | 52.80352 | 9.43412 | 27615 ft | 461 kts | 189° |
| 2026-04-25 21:58 | 52.77147 | 9.43034 | 27998 ft | 463 kts | 189° |
| 2026-04-25 21:58 | 52.73928 | 9.42658 | 28366 ft | 465 kts | 188° |
| 2026-04-25 21:58 | 52.70690 | 9.42285 | 28735 ft | 467 kts | 188° |
| 2026-04-25 21:58 | 52.67444 | 9.41913 | 29098 ft | 469 kts | 188° |
| 2026-04-25 21:59 | 52.64176 | 9.41540 | 29458 ft | 471 kts | 188° |
| 2026-04-25 21:59 | 52.60891 | 9.41163 | 29837 ft | 472 kts | 188° |
| 2026-04-25 21:59 | 52.57607 | 9.40787 | 30216 ft | 473 kts | 188° |
| 2026-04-25 22:00 | 52.51008 | 9.40035 | 30785 ft | 477 kts | 188° |
| 2026-04-25 22:00 | 52.47692 | 9.39658 | 31054 ft | 479 kts | 188° |
| 2026-04-25 22:00 | 52.44366 | 9.39281 | 31330 ft | 480 kts | 188° |
| 2026-04-25 22:00 | 52.41024 | 9.38905 | 31585 ft | 482 kts | 188° |
| 2026-04-25 22:01 | 52.37678 | 9.38531 | 31917 ft | 481 kts | 187° |
| 2026-04-25 22:01 | 52.34347 | 9.38161 | 32363 ft | 478 kts | 187° |
| 2026-04-25 22:01 | 52.31026 | 9.37793 | 32760 ft | 477 kts | 187° |
| 2026-04-25 22:01 | 52.28838 | 9.37551 | 33023 ft | 476 kts | 187° |
| 2026-04-25 22:02 | 52.24418 | 9.37057 | 33513 ft | 475 kts | 187° |
| 2026-04-25 22:02 | 52.21124 | 9.36687 | 33882 ft | 474 kts | 187° |
| 2026-04-25 22:02 | 52.17836 | 9.36317 | 34240 ft | 474 kts | 187° |
| 2026-04-25 22:02 | 52.14542 | 9.35947 | 34540 ft | 473 kts | 187° |
| 2026-04-25 22:03 | 52.11271 | 9.35579 | 34897 ft | 471 kts | 187° |
| 2026-04-25 22:03 | 52.08002 | 9.35216 | 35137 ft | 470 kts | 187° |
| 2026-04-25 22:03 | 52.01544 | 9.34507 | 35193 ft | 460 kts | 187° |
| 2026-04-25 22:04 | 51.95182 | 9.33815 | 35193 ft | 458 kts | 187° |
| 2026-04-25 22:04 | 51.88828 | 9.33116 | 35191 ft | 456 kts | 187° |
| 2026-04-25 22:05 | 51.82528 | 9.32421 | 35193 ft | 455 kts | 187° |
| 2026-04-25 22:05 | 51.76205 | 9.31716 | 35192 ft | 455 kts | 187° |
| 2026-04-25 22:06 | 51.69889 | 9.31036 | 35189 ft | 455 kts | 187° |
| 2026-04-25 22:06 | 51.63571 | 9.30349 | 35183 ft | 454 kts | 187° |
| 2026-04-25 22:07 | 51.58313 | 9.29775 | 35177 ft | 454 kts | 187° |
| 2026-04-25 22:07 | 51.50987 | 9.28987 | 35173 ft | 454 kts | 186° |
| 2026-04-25 22:08 | 51.44686 | 9.28315 | 35171 ft | 453 kts | 187° |
| 2026-04-25 22:08 | 51.38391 | 9.27627 | 35166 ft | 453 kts | 186° |
| 2026-04-25 22:09 | 51.32108 | 9.26942 | 35162 ft | 452 kts | 186° |
| 2026-04-25 22:09 | 51.25835 | 9.26272 | 35160 ft | 452 kts | 186° |
| 2026-04-25 22:10 | 51.19561 | 9.25604 | 35135 ft | 451 kts | 186° |
| 2026-04-25 22:10 | 51.13331 | 9.24936 | 35139 ft | 452 kts | 187° |
| 2026-04-25 22:11 | 51.07039 | 9.24201 | 35135 ft | 455 kts | 187° |
| 2026-04-25 22:11 | 51.00698 | 9.23456 | 35137 ft | 457 kts | 187° |
| 2026-04-25 22:12 | 50.94333 | 9.22715 | 35136 ft | 459 kts | 187° |
| 2026-04-25 22:12 | 50.89030 | 9.22120 | 35145 ft | 459 kts | 187° |
| 2026-04-25 22:13 | 50.81583 | 9.21288 | 35157 ft | 459 kts | 187° |
| 2026-04-25 22:13 | 50.75209 | 9.20577 | 35161 ft | 459 kts | 187° |
| 2026-04-25 22:14 | 50.68873 | 9.19873 | 35164 ft | 459 kts | 187° |
| 2026-04-25 22:14 | 50.62508 | 9.19142 | 35176 ft | 457 kts | 188° |
| 2026-04-25 22:15 | 50.56220 | 9.17977 | 35193 ft | 453 kts | 191° |
| 2026-04-25 22:16 | 50.46913 | 9.15774 | 35190 ft | 449 kts | 192° |
| 2026-04-25 22:16 | 50.40732 | 9.14416 | 35185 ft | 448 kts | 191° |
| 2026-04-25 22:17 | 50.34554 | 9.13138 | 35183 ft | 447 kts | 191° |
| 2026-04-25 22:17 | 50.28378 | 9.11876 | 35165 ft | 447 kts | 191° |
| 2026-04-25 22:18 | 50.22219 | 9.10597 | 35173 ft | 446 kts | 191° |
| 2026-04-25 22:18 | 50.16073 | 9.09317 | 35177 ft | 445 kts | 191° |
| 2026-04-25 22:19 | 50.09927 | 9.08038 | 35181 ft | 445 kts | 191° |
| 2026-04-25 22:19 | 50.03792 | 9.06760 | 35181 ft | 445 kts | 191° |
| 2026-04-25 22:20 | 49.97651 | 9.05501 | 35181 ft | 445 kts | 191° |
| 2026-04-25 22:20 | 49.91518 | 9.04233 | 35176 ft | 444 kts | 191° |
| 2026-04-25 22:21 | 49.85427 | 9.02968 | 35177 ft | 444 kts | 191° |
| 2026-04-25 22:21 | 49.79296 | 9.01706 | 35166 ft | 444 kts | 191° |
| 2026-04-25 22:22 | 49.73179 | 9.00461 | 35166 ft | 443 kts | 191° |
| 2026-04-25 22:22 | 49.67050 | 8.99224 | 35170 ft | 443 kts | 191° |
| 2026-04-25 22:23 | 49.60964 | 8.97816 | 35156 ft | 441 kts | 194° |
| 2026-04-25 22:23 | 49.54933 | 8.96075 | 35161 ft | 440 kts | 195° |
| 2026-04-25 22:24 | 49.49931 | 8.94620 | 35171 ft | 440 kts | 194° |
| 2026-04-25 22:24 | 49.42922 | 8.92667 | 35173 ft | 440 kts | 194° |
| 2026-04-25 22:25 | 49.37867 | 8.91296 | 35157 ft | 440 kts | 194° |
| 2026-04-25 22:25 | 49.31844 | 8.89662 | 35167 ft | 439 kts | 194° |
| 2026-04-25 22:26 | 49.25827 | 8.88026 | 35166 ft | 439 kts | 194° |
| 2026-04-25 22:26 | 49.19860 | 8.86412 | 35159 ft | 438 kts | 194° |
| 2026-04-25 22:27 | 49.13849 | 8.84780 | 35152 ft | 438 kts | 194° |
| 2026-04-25 22:27 | 49.10842 | 8.83954 | 35017 ft | 440 kts | 194° |
| 2026-04-25 22:27 | 49.07807 | 8.83119 | 34021 ft | 447 kts | 194° |
| 2026-04-25 22:27 | 49.04738 | 8.82282 | 33222 ft | 444 kts | 194° |
| 2026-04-25 22:28 | 49.01728 | 8.81471 | 32732 ft | 435 kts | 194° |
| 2026-04-25 22:28 | 48.98772 | 8.80673 | 32210 ft | 428 kts | 194° |
| 2026-04-25 22:28 | 48.95856 | 8.79887 | 31697 ft | 421 kts | 194° |
| 2026-04-25 22:28 | 48.92993 | 8.79119 | 31210 ft | 415 kts | 194° |
| 2026-04-25 22:29 | 48.90207 | 8.78377 | 30746 ft | 408 kts | 194° |
| 2026-04-25 22:29 | 48.87428 | 8.77634 | 30291 ft | 402 kts | 194° |
| 2026-04-25 22:29 | 48.84691 | 8.76897 | 29799 ft | 396 kts | 194° |
| 2026-04-25 22:30 | 48.79370 | 8.75456 | 28953 ft | 381 kts | 194° |
| 2026-04-25 22:30 | 48.76780 | 8.74755 | 28560 ft | 374 kts | 194° |
| 2026-04-25 22:30 | 48.74229 | 8.74063 | 28084 ft | 370 kts | 193° |
| 2026-04-25 22:30 | 48.72554 | 8.73613 | 27895 ft | 366 kts | 192° |
| 2026-04-25 22:31 | 48.69211 | 8.72721 | 27416 ft | 361 kts | 191° |
| 2026-04-25 22:31 | 48.66766 | 8.72075 | 26975 ft | 362 kts | 193° |
| 2026-04-25 22:31 | 48.64274 | 8.71413 | 26560 ft | 364 kts | 193° |
| 2026-04-25 22:31 | 48.61784 | 8.70751 | 26148 ft | 363 kts | 193° |
| 2026-04-25 22:32 | 48.59296 | 8.70090 | 25717 ft | 362 kts | 193° |
| 2026-04-25 22:32 | 48.56811 | 8.69429 | 25286 ft | 362 kts | 193° |
| 2026-04-25 22:32 | 48.54331 | 8.68771 | 24861 ft | 361 kts | 193° |
| 2026-04-25 22:32 | 48.51853 | 8.68115 | 24400 ft | 361 kts | 193° |
| 2026-04-25 22:33 | 48.49378 | 8.67461 | 23960 ft | 361 kts | 193° |
| 2026-04-25 22:33 | 48.46904 | 8.66805 | 23474 ft | 361 kts | 193° |
| 2026-04-25 22:33 | 48.44428 | 8.66150 | 23011 ft | 360 kts | 193° |
| 2026-04-25 22:33 | 48.41969 | 8.65499 | 22576 ft | 358 kts | 193° |
| 2026-04-25 22:34 | 48.39524 | 8.64850 | 22141 ft | 356 kts | 193° |
| 2026-04-25 22:34 | 48.37085 | 8.64197 | 21713 ft | 355 kts | 193° |
| 2026-04-25 22:34 | 48.34670 | 8.63498 | 21287 ft | 353 kts | 194° |
| 2026-04-25 22:34 | 48.32261 | 8.62766 | 20865 ft | 352 kts | 194° |
| 2026-04-25 22:35 | 48.29902 | 8.62035 | 20453 ft | 350 kts | 194° |
| 2026-04-25 22:35 | 48.27516 | 8.61294 | 20037 ft | 349 kts | 194° |
| 2026-04-25 22:35 | 48.25137 | 8.60561 | 19625 ft | 349 kts | 193° |
| 2026-04-25 22:35 | 48.22758 | 8.59837 | 19215 ft | 348 kts | 193° |
| 2026-04-25 22:36 | 48.20383 | 8.59120 | 18797 ft | 348 kts | 193° |
| 2026-04-25 22:36 | 48.18007 | 8.58409 | 18373 ft | 347 kts | 192° |
| 2026-04-25 22:36 | 48.15648 | 8.57704 | 18150 ft | 341 kts | 193° |
| 2026-04-25 22:36 | 48.13331 | 8.57012 | 18184 ft | 339 kts | 193° |
| 2026-04-25 22:37 | 48.10997 | 8.56504 | 18182 ft | 340 kts | 181° |
| 2026-04-25 22:37 | 48.08678 | 8.57028 | 18060 ft | 343 kts | 161° |
| 2026-04-25 22:37 | 48.06492 | 8.58445 | 17792 ft | 342 kts | 155° |
| 2026-04-25 22:37 | 48.04327 | 8.59955 | 17536 ft | 341 kts | 155° |
| 2026-04-25 22:38 | 48.02186 | 8.61463 | 17264 ft | 340 kts | 155° |
| 2026-04-25 22:38 | 48.00052 | 8.62965 | 17002 ft | 339 kts | 155° |
| 2026-04-25 22:38 | 47.97924 | 8.64462 | 16752 ft | 338 kts | 155° |
| 2026-04-25 22:38 | 47.95803 | 8.65951 | 16492 ft | 336 kts | 155° |
| 2026-04-25 22:39 | 47.93684 | 8.67431 | 16233 ft | 335 kts | 155° |
| 2026-04-25 22:39 | 47.91574 | 8.68899 | 15983 ft | 334 kts | 155° |
| 2026-04-25 22:39 | 47.89470 | 8.70358 | 15743 ft | 333 kts | 155° |
| 2026-04-25 22:39 | 47.87368 | 8.71810 | 15491 ft | 331 kts | 155° |
| 2026-04-25 22:40 | 47.85284 | 8.73249 | 15177 ft | 329 kts | 155° |
| 2026-04-25 22:40 | 47.83194 | 8.74692 | 14649 ft | 335 kts | 155° |
| 2026-04-25 22:40 | 47.81072 | 8.76157 | 14220 ft | 337 kts | 155° |
| 2026-04-25 22:40 | 47.78942 | 8.77623 | 13792 ft | 337 kts | 155° |
| 2026-04-25 22:41 | 47.76845 | 8.79070 | 13367 ft | 336 kts | 155° |
| 2026-04-25 22:41 | 47.74729 | 8.80529 | 12975 ft | 334 kts | 155° |
| 2026-04-25 22:41 | 47.72622 | 8.81981 | 12564 ft | 333 kts | 155° |
| 2026-04-25 22:41 | 47.70525 | 8.83427 | 12155 ft | 332 kts | 155° |
| 2026-04-25 22:42 | 47.68431 | 8.84870 | 11743 ft | 331 kts | 155° |
| 2026-04-25 22:42 | 47.66349 | 8.86300 | 11325 ft | 330 kts | 155° |
| 2026-04-25 22:42 | 47.64274 | 8.87722 | 10919 ft | 328 kts | 156° |
| 2026-04-25 22:42 | 47.62210 | 8.89133 | 10547 ft | 326 kts | 156° |
| 2026-04-25 22:43 | 47.60156 | 8.90533 | 10228 ft | 321 kts | 156° |
| 2026-04-25 22:43 | 47.58134 | 8.91913 | 9781 ft | 320 kts | 156° |
| 2026-04-25 22:43 | 47.56100 | 8.93262 | 9179 ft | 314 kts | 161° |
| 2026-04-25 22:43 | 47.54019 | 8.93907 | 8757 ft | 298 kts | 179° |
| 2026-04-25 22:44 | 47.52011 | 8.93674 | 8340 ft | 285 kts | 191° |
| 2026-04-25 22:44 | 47.50061 | 8.93207 | 7926 ft | 284 kts | 191° |
| 2026-04-25 22:44 | 47.48104 | 8.92739 | 7493 ft | 285 kts | 190° |
| 2026-04-25 22:44 | 47.46151 | 8.92273 | 7062 ft | 284 kts | 191° |
| 2026-04-25 22:45 | 47.44318 | 8.91258 | 6613 ft | 281 kts | 218° |
| 2026-04-25 22:45 | 47.43166 | 8.88995 | 6151 ft | 278 kts | 252° |
| 2026-04-25 22:45 | 47.42927 | 8.86237 | 5735 ft | 272 kts | 272° |
| 2026-04-25 22:45 | 47.43146 | 8.83525 | 5309 ft | 261 kts | 280° |
| 2026-04-25 22:46 | 47.43493 | 8.80965 | 5029 ft | 245 kts | 282° |
| 2026-04-25 22:46 | 47.43811 | 8.78641 | 5012 ft | 220 kts | 281° |
| 2026-04-25 22:46 | 47.44073 | 8.76472 | 5007 ft | 210 kts | 280° |
| 2026-04-25 22:46 | 47.44293 | 8.74364 | 5009 ft | 206 kts | 279° |
| 2026-04-25 22:47 | 47.44489 | 8.72272 | 4859 ft | 206 kts | 278° |
| 2026-04-25 22:47 | 47.44672 | 8.70144 | 4301 ft | 212 kts | 278° |
| 2026-04-25 22:47 | 47.44848 | 8.67959 | 3733 ft | 215 kts | 278° |
| 2026-04-25 22:47 | 47.45015 | 8.65766 | 3525 ft | 213 kts | 278° |
| 2026-04-25 22:48 | 47.45179 | 8.63573 | 3890 ft | 223 kts | 278° |
| 2026-04-25 22:48 | 47.45358 | 8.61176 | 4109 ft | 246 kts | 278° |
| 2026-04-25 22:48 | 47.45878 | 8.58695 | 4336 ft | 262 kts | 304° |
| 2026-04-25 22:48 | 47.47205 | 8.56830 | 4848 ft | 270 kts | 331° |
| 2026-04-25 22:49 | 47.48977 | 8.56041 | 4985 ft | 267 kts | 358° |
| 2026-04-25 22:49 | 47.50781 | 8.56669 | 5526 ft | 272 kts | 29° |
| 2026-04-25 22:49 | 47.52179 | 8.58552 | 6460 ft | 278 kts | 56° |
| 2026-04-25 22:49 | 47.52919 | 8.61223 | 6988 ft | 285 kts | 78° |
| 2026-04-25 22:50 | 47.53202 | 8.64128 | 7143 ft | 285 kts | 83° |
| 2026-04-25 22:50 | 47.53407 | 8.66942 | 7184 ft | 270 kts | 84° |
| 2026-04-25 22:50 | 47.53593 | 8.69612 | 7189 ft | 252 kts | 84° |
| 2026-04-25 22:50 | 47.53767 | 8.72166 | 7193 ft | 249 kts | 84° |
| 2026-04-25 22:51 | 47.53953 | 8.74891 | 7194 ft | 278 kts | 84° |
| 2026-04-25 22:51 | 47.54150 | 8.77774 | 7191 ft | 283 kts | 84° |
| 2026-04-25 22:51 | 47.54349 | 8.80678 | 7187 ft | 284 kts | 84° |
| 2026-04-25 22:51 | 47.54554 | 8.83587 | 7189 ft | 285 kts | 84° |
| 2026-04-25 22:52 | 47.54648 | 8.86513 | 7180 ft | 285 kts | 92° |
| 2026-04-25 22:52 | 47.54152 | 8.89303 | 6731 ft | 288 kts | 123° |
| 2026-04-25 22:52 | 47.52796 | 8.91390 | 6575 ft | 278 kts | 147° |
| 2026-04-25 22:52 | 47.51675 | 8.92311 | 6484 ft | 269 kts | 159° |
| 2026-04-25 22:53 | 47.49345 | 8.92957 | 6313 ft | 250 kts | 184° |
| 2026-04-25 22:53 | 47.47661 | 8.92626 | 6184 ft | 238 kts | 190° |
| 2026-04-25 22:53 | 47.46053 | 8.92249 | 6054 ft | 230 kts | 190° |
| 2026-04-25 22:53 | 47.44540 | 8.91590 | 5922 ft | 227 kts | 214° |
| 2026-04-25 22:54 | 47.43553 | 8.89837 | 5786 ft | 225 kts | 251° |
| 2026-04-25 22:54 | 47.43444 | 8.87600 | 5677 ft | 225 kts | 279° |
| 2026-04-25 22:54 | 47.43655 | 8.85304 | 5525 ft | 227 kts | 277° |
| 2026-04-25 22:54 | 47.43828 | 8.82983 | 5195 ft | 227 kts | 276° |
| 2026-04-25 22:55 | 47.43991 | 8.80643 | 4838 ft | 230 kts | 276° |
| 2026-04-25 22:55 | 47.44154 | 8.78295 | 4502 ft | 227 kts | 276° |
| 2026-04-25 22:55 | 47.44314 | 8.76009 | 4174 ft | 216 kts | 277° |
| 2026-04-25 22:55 | 47.44466 | 8.73852 | 3875 ft | 208 kts | 278° |
| 2026-04-25 22:56 | 47.44611 | 8.71786 | 3597 ft | 193 kts | 278° |
| 2026-04-25 22:56 | 47.44745 | 8.69879 | 3332 ft | 180 kts | 278° |
| 2026-04-25 22:56 | 47.44868 | 8.68127 | 3068 ft | 164 kts | 278° |
| 2026-04-25 22:56 | 47.44981 | 8.66504 | 2822 ft | 154 kts | 278° |
| 2026-04-25 22:57 | 47.45090 | 8.64960 | 2601 ft | 149 kts | 278° |
| 2026-04-25 22:57 | 47.45198 | 8.63472 | 2360 ft | 146 kts | 277° |
| 2026-04-25 22:57 | 47.45308 | 8.62001 | 2149 ft | 143 kts | 277° |
| 2026-04-25 22:57 | 47.45418 | 8.60548 | 1930 ft | 141 kts | 276° |
| 2026-04-25 22:58 | 47.45516 | 8.59112 | 1742 ft | 140 kts | 277° |
| 2026-04-25 22:58 | 47.45616 | 8.57686 | 1551 ft | 139 kts | 277° |
| 2026-04-25 22:58 | 47.45722 | 8.56278 | 1411 ft | 129 kts | 277° |
| 2026-04-25 22:58 | 47.45781 | 8.55332 | 1394 ft | 49 kts | 277° |
| 2026-04-25 22:59 | 47.45796 | 8.55129 | 1401 ft | 13 kts | 285° |
| 2026-04-25 22:59 | 47.45870 | 8.55077 | 1394 ft | 13 kts | 24° |
| 2026-04-25 22:59 | 47.45887 | 8.55091 | 1399 ft | 0 kts | 30° |
| 2026-04-25 23:01 | 47.45896 | 8.55106 | 1404 ft | 4 kts | 53° |
| 2026-04-25 23:01 | 47.45893 | 8.55160 | 1394 ft | 7 kts | 116° |
| 2026-04-25 23:01 | 47.45857 | 8.55197 | 1400 ft | 5 kts | 154° |
| 2026-04-25 23:01 | 47.45825 | 8.55220 | 1400 ft | 7 kts | 155° |
| 2026-04-25 23:02 | 47.45756 | 8.55267 | 1396 ft | 10 kts | 155° |
| 2026-04-25 23:02 | 47.45700 | 8.55301 | 1398 ft | 6 kts | 161° |
| 2026-04-25 23:02 | 47.45668 | 8.55317 | 1397 ft | 4 kts | 162° |
| 2026-04-25 23:02 | 47.45626 | 8.55337 | 1402 ft | 7 kts | 160° |
| 2026-04-25 23:03 | 47.45584 | 8.55365 | 1403 ft | 6 kts | 155° |
| 2026-04-25 23:03 | 47.45548 | 8.55394 | 1400 ft | 7 kts | 142° |
| 2026-04-25 23:03 | 47.45530 | 8.55454 | 1402 ft | 6 kts | 97° |
| 2026-04-25 23:03 | 47.45525 | 8.55508 | 1397 ft | 5 kts | 96° |
| 2026-04-25 23:04 | 47.45522 | 8.55551 | 1397 ft | 4 kts | 96° |
| 2026-04-25 23:04 | 47.45520 | 8.55573 | 1397 ft | 3 kts | 96° |
| 2026-04-25 23:04 | 47.45518 | 8.55606 | 1401 ft | 2 kts | 96° |
| 2026-04-25 23:04 | 47.45517 | 8.55619 | 1403 ft | 1 kts | 96° |
| 2026-04-25 23:05 | 47.45516 | 8.55625 | 1402 ft | 0 kts | 96° |
| 2026-04-25 23:05 | 47.45512 | 8.55683 | 1397 ft | 13 kts | 96° |
| 2026-04-25 23:05 | 47.45503 | 8.55816 | 1405 ft | 13 kts | 96° |
| 2026-04-25 23:05 | 47.45493 | 8.55951 | 1399 ft | 13 kts | 96° |
| 2026-04-25 23:06 | 47.45488 | 8.56040 | 1403 ft | 3 kts | 95° |
| 2026-04-25 23:06 | 47.45483 | 8.56058 | 1399 ft | 0 kts | 125° |
| 2026-04-25 23:06 | 47.45474 | 8.56064 | 1404 ft | 3 kts | 152° |
| 2026-04-25 23:06 | 47.45460 | 8.56069 | 1397 ft | 2 kts | 171° |
| 2026-04-25 23:07 | 47.45445 | 8.56067 | 1399 ft | 3 kts | 183° |
| 2026-04-25 23:07 | 47.45430 | 8.56065 | 1397 ft | 2 kts | 186° |
| 2026-04-25 23:07 | 47.45421 | 8.56063 | 1397 ft | 1 kts | 187° |
| 2026-04-25 23:07 | 47.45417 | 8.56063 | 1397 ft | 0 kts | 187° |
| 2026-04-25 23:08 | 47.45414 | 8.56062 | 1402 ft | 0 kts | 186° |